Linden Pride — H3VP — position and weather

sailwx.info

Track history (hours):
 
Tides and Currents Weather Stations Pressure Air Temp Water Temp Dewpoint Dewpoint Depression Visibility Wind Speed Wind Dir Waves Ship Positions

Linden Pride

Last reported at 2018-Mar-30 18:56 UTC. Time now 2018-Apr-26 21:19 UTC.
Position N 01°17' E 103°21'.
Warning: this ship's position is 27 days out of date.

Length 230 m; beam 36.6 m.

Type: Tanker. MMSI: 356677000.

Date/timePositionNaut miles runAvg speedWind from/ knotsBaromVisibWave heightAir tempDewpointWater temp
2018-Mar-30 18:56N 01°17' E 103°21'814.6
2018-Mar-30 18:22N 01°13' E 103°28'512.6
2018-Mar-30 17:59N 01°12' E 103°32'510.4
2018-Mar-30 17:30N 01°11' E 103°37'611.4
2018-Mar-30 17:00N 01°09' E 103°43'611.1
2018-Mar-30 16:30N 01°10' E 103°48'612.8
2018-Mar-30 16:00N 01°13' E 103°54'  
2018-Mar-26 16:53N 22°01' E 121°11'715.3
2018-Mar-26 16:25N 22°07' E 121°15'615.0
2018-Mar-26 16:00N 22°12' E 121°18'1415.6
2018-Mar-26 15:05N 22°24' E 121°28'315.9
2018-Mar-26 14:52N 22°26' E 121°30'915.7
2018-Mar-26 14:15N 22°34' E 121°36'1115.5
2018-Mar-26 13:31N 22°45' E 121°40'8415.0
2018-Mar-26 07:53N 24°06' E 122°04'914.6
2018-Mar-26 07:15N 24°15' E 122°07'414.3
2018-Mar-26 06:59N 24°19' E 122°08'714.0
2018-Mar-26 06:29N 24°26' E 122°10'913.5
2018-Mar-26 05:48N 24°34' E 122°14'413.6
2018-Mar-26 05:29N 24°39' E 122°15'714.0
2018-Mar-26 05:01N 24°45' E 122°16'714.2
2018-Mar-26 04:30N 24°52' E 122°16'916.6
2018-Mar-26 03:57N 25°01' E 122°13'813.8
2018-Mar-26 03:21N 25°09' E 122°13'2 5.0
2018-Mar-26 02:57N 25°11' E 122°11'6 5.7
2018-Mar-26 01:52N 25°10' E 122°04'515.2
2018-Mar-26 01:30N 25°09' E 121°58'713.3
2018-Mar-26 01:00N 25°09' E 121°51'2 0.0
2018-Mar-24 08:42N 25°07' E 121°50'0 0.6
2018-Mar-24 08:30N 25°08' E 121°50'1 2.6
2018-Mar-24 08:01N 25°09' E 121°50'2 4.1
2018-Mar-24 07:30N 25°10' E 121°51'1 1.6
2018-Mar-24 07:00N 25°11' E 121°51'1 1.1
2018-Mar-24 06:31N 25°12' E 121°51'0 0.9
2018-Mar-24 06:00N 25°12' E 121°52'2 3.3
2018-Mar-24 05:31N 25°11' E 121°53'1 2.9
2018-Mar-24 05:00N 25°10' E 121°55'3 5.2
2018-Mar-24 04:31N 25°11' E 121°58'815.7
2018-Mar-24 04:00N 25°13' E 122°06'  
2018-Mar-21 08:34N 34°06' E 138°31'515.8
2018-Mar-21 08:16N 34°09' E 138°35'415.5
2018-Mar-21 08:00N 34°11' E 138°39'1016.1
2018-Mar-21 07:24N 34°17' E 138°48'616.0
2018-Mar-21 06:59N 34°21' E 138°54'815.7
2018-Mar-21 06:30N 34°26' E 139°02'815.8
2018-Mar-21 06:00N 34°31' E 139°09'713.4
2018-Mar-21 05:30N 34°36' E 139°15'815.0
2018-Mar-21 05:00N 34°37' E 139°24'713.6
2018-Mar-21 04:28N 34°42' E 139°31'817.7
2018-Mar-21 04:00N 34°49' E 139°36'1018.6
2018-Mar-21 03:27N 34°58' E 139°41'817.5
2018-Mar-21 03:00N 35°06' E 139°44'714.0
2018-Mar-21 02:31N 35°12' E 139°46'612.2
2018-Mar-21 02:00N 35°18' E 139°44'612.3
2018-Mar-21 01:31N 35°24' E 139°43'714.7
2018-Mar-21 01:00N 35°29' E 139°50'714.0
2018-Mar-21 00:31N 35°30' E 139°59'2 3.7
2018-Mar-20 23:58N 35°29' E 140°01'0 0.0
2018-Mar-20 23:25N 35°29' E 140°01'0 0.0
2018-Mar-20 22:58N 35°29' E 140°01'0 0.0
2018-Mar-20 22:10N 35°29' E 140°01'0 0.0
2018-Mar-20 21:58N 35°29' E 140°01'0 0.0
2018-Mar-20 21:28N 35°29' E 140°01'0 0.0
2018-Mar-20 20:58N 35°29' E 140°01'0 0.0
2018-Mar-20 20:28N 35°29' E 140°01'0 0.0
2018-Mar-20 19:55N 35°29' E 140°01'0 0.0
2018-Mar-20 19:22N 35°29' E 140°01'  
Track history (hours):
 
Tides and Currents Weather Stations Pressure Air Temp Water Temp Dewpoint Dewpoint Depression Visibility Wind Speed Wind Dir Waves Ship Positions

Linden Pride

Last reported at 2018-Mar-30 18:56 UTC. Time now 2018-Apr-26 21:19 UTC.
Position N 01°17' E 103°21'.
Warning: this ship's position is 27 days out of date.

Length 230 m; beam 36.6 m.

Type: Tanker. MMSI: 356677000.

Date/timePositionNaut miles runAvg speedWind from/ knotsBaromVisibWave heightAir tempDewpointWater temp
2018-Mar-30 18:56N 01°17' E 103°21'814.6
2018-Mar-30 18:22N 01°13' E 103°28'512.6
2018-Mar-30 17:59N 01°12' E 103°32'510.4
2018-Mar-30 17:30N 01°11' E 103°37'611.4
2018-Mar-30 17:00N 01°09' E 103°43'611.1
2018-Mar-30 16:30N 01°10' E 103°48'612.8
2018-Mar-30 16:00N 01°13' E 103°54'  
2018-Mar-26 16:53N 22°01' E 121°11'715.3
2018-Mar-26 16:25N 22°07' E 121°15'615.0
2018-Mar-26 16:00N 22°12' E 121°18'1415.6
2018-Mar-26 15:05N 22°24' E 121°28'315.9
2018-Mar-26 14:52N 22°26' E 121°30'915.7
2018-Mar-26 14:15N 22°34' E 121°36'1115.5
2018-Mar-26 13:31N 22°45' E 121°40'8415.0
2018-Mar-26 07:53N 24°06' E 122°04'914.6
2018-Mar-26 07:15N 24°15' E 122°07'414.3
2018-Mar-26 06:59N 24°19' E 122°08'714.0
2018-Mar-26 06:29N 24°26' E 122°10'913.5
2018-Mar-26 05:48N 24°34' E 122°14'413.6
2018-Mar-26 05:29N 24°39' E 122°15'714.0
2018-Mar-26 05:01N 24°45' E 122°16'714.2
2018-Mar-26 04:30N 24°52' E 122°16'916.6
2018-Mar-26 03:57N 25°01' E 122°13'813.8
2018-Mar-26 03:21N 25°09' E 122°13'2 5.0
2018-Mar-26 02:57N 25°11' E 122°11'6 5.7
2018-Mar-26 01:52N 25°10' E 122°04'515.2
2018-Mar-26 01:30N 25°09' E 121°58'713.3
2018-Mar-26 01:00N 25°09' E 121°51'2 0.0
2018-Mar-24 08:42N 25°07' E 121°50'0 0.6
2018-Mar-24 08:30N 25°08' E 121°50'1 2.6
2018-Mar-24 08:01N 25°09' E 121°50'2 4.1
2018-Mar-24 07:30N 25°10' E 121°51'1 1.6
2018-Mar-24 07:00N 25°11' E 121°51'1 1.1
2018-Mar-24 06:31N 25°12' E 121°51'0 0.9
2018-Mar-24 06:00N 25°12' E 121°52'2 3.3
2018-Mar-24 05:31N 25°11' E 121°53'1 2.9
2018-Mar-24 05:00N 25°10' E 121°55'3 5.2
2018-Mar-24 04:31N 25°11' E 121°58'815.7
2018-Mar-24 04:00N 25°13' E 122°06'  
2018-Mar-21 08:34N 34°06' E 138°31'515.8
2018-Mar-21 08:16N 34°09' E 138°35'415.5
2018-Mar-21 08:00N 34°11' E 138°39'1016.1
2018-Mar-21 07:24N 34°17' E 138°48'616.0
2018-Mar-21 06:59N 34°21' E 138°54'815.7
2018-Mar-21 06:30N 34°26' E 139°02'815.8
2018-Mar-21 06:00N 34°31' E 139°09'713.4
2018-Mar-21 05:30N 34°36' E 139°15'815.0
2018-Mar-21 05:00N 34°37' E 139°24'713.6
2018-Mar-21 04:28N 34°42' E 139°31'817.7
2018-Mar-21 04:00N 34°49' E 139°36'1018.6
2018-Mar-21 03:27N 34°58' E 139°41'817.5
2018-Mar-21 03:00N 35°06' E 139°44'714.0
2018-Mar-21 02:31N 35°12' E 139°46'612.2
2018-Mar-21 02:00N 35°18' E 139°44'612.3
2018-Mar-21 01:31N 35°24' E 139°43'714.7
2018-Mar-21 01:00N 35°29' E 139°50'714.0
2018-Mar-21 00:31N 35°30' E 139°59'2 3.7
2018-Mar-20 23:58N 35°29' E 140°01'0 0.0
2018-Mar-20 23:25N 35°29' E 140°01'0 0.0
2018-Mar-20 22:58N 35°29' E 140°01'0 0.0
2018-Mar-20 22:10N 35°29' E 140°01'0 0.0
2018-Mar-20 21:58N 35°29' E 140°01'0 0.0
2018-Mar-20 21:28N 35°29' E 140°01'0 0.0
2018-Mar-20 20:58N 35°29' E 140°01'0 0.0
2018-Mar-20 20:28N 35°29' E 140°01'0 0.0
2018-Mar-20 19:55N 35°29' E 140°01'0 0.0
2018-Mar-20 19:22N 35°29' E 140°01'  

Dump ship's entire track history